EKAH/AAR METAR and TAF weather

Enter ICAO airport designator
Station Type Date Time Source
EKAH METAR 2018/07/21 12:50 UTC NOAA

EKAH 211250Z AUTO 28012KT 240V300 9999NDV SCT058/// 26/11 Q1012


Station Type Date Time Source
EKAH Decoded METAR 2018/07/21 12:50 UTC NOAA

Tirstrup, Denmark (EKAH) 56-18N 010-37E 25M
Jul 21, 2018 - 08:50 AM EDT / 2018.07.21 1250 UTC
Wind: from the W (280 degrees) at 14 MPH (12 KT) (direction variable):0
Sky conditions: partly cloudy
Temperature: 78 F (26 C)
Dew Point: 51 F (11 C)
Relative Humidity: 39%
Pressure (altimeter): 29.88 in. Hg (1012 hPa)
ob: EKAH 211250Z AUTO 28012KT 240V300 9999NDV SCT058/// 26/11 Q1012
cycle: 13

Station Type Date Time Source
EKAH TAF 2018/07/21 12:13 UTC NOAA

TAF EKAH 211101Z 2112/2212 28008KT CAVOK


Example: see airport list